Time;durP1;ratioP1;P1;durP2;ratioP2;P2;SDS_P1;SDS_P2;PMS_P1;PMS_P2;Temp;Humidity;BMP_temperature;BMP_pressure;BME280_temperature;BME280_humidity;BME280_pressure;Samples;Min_cycle;Max_cycle;Signal;HPM_P1;HPM_P2
2023/01/02 00:02:05;;;;;;;;;;;;;;;13.60;57.50;100576.41;4346171;32;35538;-65
2023/01/02 00:04:32;;;;;;;;;;;;;;;13.64;57.10;100582.41;4350330;32;34748;-68
2023/01/02 00:07:00;;;;;;;;;;;;;;;13.81;56.19;100590.09;4356662;32;31993;-66
2023/01/02 00:09:27;;;;;;;;;;;;;;;13.70;56.03;100577.44;4345006;32;34657;-65
2023/01/02 00:11:56;;;;;;;;;;;;;;;13.81;55.56;100584.72;4351065;32;35420;-66
2023/01/02 00:14:23;;;;;;;;;;;;;;;13.78;55.78;100579.56;4348040;32;34774;-65
2023/01/02 00:16:50;;;;;;;;;;;;;;;13.42;56.89;100572.41;4350327;32;33886;-65
2023/01/02 00:19:18;;;;;;;;;;;;;;;12.96;59.20;100573.84;4358701;32;34083;-65
2023/01/02 00:21:45;;;;;;;;;;;;;;;13.38;57.94;100576.28;4352525;32;34316;-65
2023/01/02 00:24:12;;;;;;;;;;;;;;;13.37;58.30;100571.88;4346715;32;34213;-65
2023/01/02 00:26:40;;;;;;;;;;;;;;;13.38;57.70;100569.06;4345991;32;33102;-69
2023/01/02 00:29:07;;;;;;;;;;;;;;;12.69;60.25;100573.16;4344348;32;34921;-74
2023/01/02 00:31:35;;;;;;;;;;;;;;;12.28;62.30;100563.44;4355996;32;34184;-70
2023/01/02 00:34:03;;;;;;;;;;;;;;;13.09;59.58;100572.97;4346905;32;34435;-68
2023/01/02 00:36:30;;;;;;;;;;;;;;;13.51;57.54;100579.78;4344138;32;33595;-70
2023/01/02 00:38:57;;;;;;;;;;;;;;;13.18;58.75;100577.69;4345122;32;34485;-67
2023/01/02 00:41:25;;;;;;;;;;;;;;;13.52;57.54;100576.13;4343107;32;34251;-68
2023/01/02 00:43:52;;;;;;;;;;;;;;;13.67;56.64;100577.66;4344846;33;34159;-69
2023/01/02 00:46:19;;;;;;;;;;;;;;;13.65;56.64;100586.84;4344695;33;34174;-69
2023/01/02 00:48:47;;;;;;;;;;;;;;;13.27;58.51;100575.22;4356804;32;35302;-67
2023/01/02 00:51:14;;;;;;;;;;;;;;;13.60;57.29;100579.09;4350599;32;34461;-70
2023/01/02 00:53:41;;;;;;;;;;;;;;;13.59;56.98;100585.47;4345529;32;34947;-69
2023/01/02 00:56:10;;;;;;;;;;;;;;;13.72;56.16;100586.25;4345652;32;32109;-69
2023/01/02 00:58:37;;;;;;;;;;;;;;;13.61;56.19;100577.25;4348606;32;35271;-68
2023/01/02 01:01:04;;;;;;;;;;;;;;;13.71;55.73;100586.37;4346363;32;34972;-69
2023/01/02 01:03:32;;;;;;;;;;;;;;;13.67;55.35;100587.56;4344208;32;34686;-70
2023/01/02 01:06:04;;;;;;;;;;;;;;;13.31;55.38;100573.16;4348266;32;33853;-68
2023/01/02 01:08:32;;;;;;;;;;;;;;;13.65;54.53;100573.38;4352829;32;32802;-68
2023/01/02 01:11:04;;;;;;;;;;;;;;;13.70;54.23;100580.13;4354338;32;34318;-68
2023/01/02 01:13:31;;;;;;;;;;;;;;;13.65;54.29;100578.78;4348149;32;34463;-67
2023/01/02 01:16:02;;;;;;;;;;;;;;;13.62;53.92;100581.69;4349992;32;33384;-67
2023/01/02 01:18:31;;;;;;;;;;;;;;;13.50;53.53;100576.22;4343460;32;34517;-68
2023/01/02 01:21:04;;;;;;;;;;;;;;;13.40;53.44;100577.88;4345737;32;34148;-69
2023/01/02 01:23:31;;;;;;;;;;;;;;;13.48;52.86;100580.00;4343620;32;32692;-68
2023/01/02 01:26:01;;;;;;;;;;;;;;;13.31;52.65;100578.56;4343077;32;33424;-67
2023/01/02 01:28:29;;;;;;;;;;;;;;;13.34;52.43;100575.63;4345114;32;33635;-68
2023/01/02 01:31:07;;;;;;;;;;;;;;;13.30;53.00;100574.16;4344556;32;34230;-69
2023/01/02 01:33:34;;;;;;;;;;;;;;;13.24;53.01;100566.50;4345051;32;34361;-69
2023/01/02 01:36:09;;;;;;;;;;;;;;;13.18;52.96;100567.78;4345404;32;33905;-71
2023/01/02 01:38:36;;;;;;;;;;;;;;;13.14;53.38;100565.47;4350558;32;33910;-67
2023/01/02 01:41:04;;;;;;;;;;;;;;;13.19;52.95;100558.78;4358312;32;34019;-69
2023/01/02 01:43:34;;;;;;;;;;;;;;;13.01;54.30;100543.97;4344358;32;34337;-69
2023/01/02 01:46:02;;;;;;;;;;;;;;;12.93;55.64;100549.03;4354468;32;33328;-70
2023/01/02 01:48:29;;;;;;;;;;;;;;;12.93;55.55;100532.91;4352932;32;34051;-66
2023/01/02 01:50:57;;;;;;;;;;;;;;;13.01;54.96;100534.09;4343231;32;34913;-67
2023/01/02 01:53:24;;;;;;;;;;;;;;;13.16;54.43;100531.25;4346233;32;34085;-66
2023/01/02 01:55:52;;;;;;;;;;;;;;;13.20;54.33;100530.91;4355186;32;33748;-69
2023/01/02 01:58:21;;;;;;;;;;;;;;;12.96;54.83;100520.12;4345684;32;34995;-66
2023/01/02 02:00:48;;;;;;;;;;;;;;;13.13;53.55;100518.91;4351353;32;34047;-68
2023/01/02 02:03:17;;;;;;;;;;;;;;;12.85;56.24;100519.19;4357097;32;34402;-68
2023/01/02 02:05:45;;;;;;;;;;;;;;;12.63;57.55;100526.09;4345235;32;33165;-68
2023/01/02 02:08:14;;;;;;;;;;;;;;;12.53;59.10;100523.19;4355650;32;32847;-67
2023/01/02 02:10:41;;;;;;;;;;;;;;;12.12;60.23;100520.72;4353824;32;35959;-68
2023/01/02 02:13:09;;;;;;;;;;;;;;;12.33;60.02;100515.69;4349678;32;34554;-65
2023/01/02 02:15:56;;;;;;;;;;;;;;;12.86;57.80;100511.00;4356670;32;34673;-66
2023/01/02 02:18:24;;;;;;;;;;;;;;;12.65;58.54;100513.41;4348253;32;35677;-66
2023/01/02 02:21:00;;;;;;;;;;;;;;;12.43;60.09;100514.06;4355013;32;34633;-69
2023/01/02 02:23:27;;;;;;;;;;;;;;;12.83;58.38;100505.84;4349370;32;32910;-68
2023/01/02 02:25:58;;;;;;;;;;;;;;;12.77;58.92;100504.47;4354337;32;33703;-65
2023/01/02 02:28:36;;;;;;;;;;;;;;;11.07;64.62;100509.81;4351742;32;34237;-65
2023/01/02 02:31:10;;;;;;;;;;;;;;;12.10;62.03;100495.78;4353546;32;33796;-65
2023/01/02 02:33:44;;;;;;;;;;;;;;;11.75;63.06;100501.75;4347453;32;34336;-68
2023/01/02 02:36:15;;;;;;;;;;;;;;;11.63;64.25;100492.69;4353232;32;33971;-65
2023/01/02 02:38:46;;;;;;;;;;;;;;;12.53;60.75;100500.84;4354267;32;34519;-66
2023/01/02 02:41:14;;;;;;;;;;;;;;;12.50;60.97;100504.63;4355010;32;34171;-66
2023/01/02 02:43:50;;;;;;;;;;;;;;;12.47;60.94;100502.16;4352710;32;34208;-66
2023/01/02 02:46:18;;;;;;;;;;;;;;;12.68;60.27;100498.88;4354585;32;33572;-65
2023/01/02 02:49:02;;;;;;;;;;;;;;;12.61;60.49;100498.47;4351371;32;34228;-68
2023/01/02 02:51:34;;;;;;;;;;;;;;;12.64;60.55;100490.19;4350518;32;34348;-65
2023/01/02 02:54:07;;;;;;;;;;;;;;;12.90;59.77;100506.25;4356430;32;34979;-65
2023/01/02 02:56:34;;;;;;;;;;;;;;;12.60;60.65;100499.44;4343720;32;34753;-65
2023/01/02 02:59:02;;;;;;;;;;;;;;;12.54;60.77;100503.41;4344582;32;34239;-69
2023/01/02 03:01:29;;;;;;;;;;;;;;;12.47;60.96;100502.16;4356389;32;35262;-65
2023/01/02 03:03:57;;;;;;;;;;;;;;;12.69;60.63;100500.63;4355836;32;35469;-65
2023/01/02 03:06:35;;;;;;;;;;;;;;;12.72;60.45;100493.19;4353422;32;32234;-67
2023/01/02 03:09:10;;;;;;;;;;;;;;;12.91;59.96;100492.75;4353848;32;34589;-68
2023/01/02 03:11:56;;;;;;;;;;;;;;;12.43;61.60;100489.06;4341274;32;33260;-68
2023/01/02 03:14:28;;;;;;;;;;;;;;;12.88;60.25;100484.91;4350475;32;35414;-67
2023/01/02 03:17:02;;;;;;;;;;;;;;;13.08;59.58;100485.28;4355439;32;32927;-68
2023/01/02 03:19:41;;;;;;;;;;;;;;;13.16;59.42;100488.22;4358143;32;33914;-68
2023/01/02 03:22:13;;;;;;;;;;;;;;;13.05;59.80;100484.50;4355356;32;34309;-67
2023/01/02 03:24:40;;;;;;;;;;;;;;;12.99;59.84;100479.59;4343283;32;34756;-67
2023/01/02 03:27:08;;;;;;;;;;;;;;;12.57;61.87;100478.19;4346096;32;33053;-69
2023/01/02 03:29:40;;;;;;;;;;;;;;;12.31;62.60;100482.72;4356101;32;33835;-67
2023/01/02 03:32:32;;;;;;;;;;;;;;;12.83;61.01;100479.84;4357497;32;34179;-69
2023/01/02 03:35:00;;;;;;;;;;;;;;;12.89;61.12;100475.84;4348073;32;33020;-67
2023/01/02 03:37:28;;;;;;;;;;;;;;;12.83;61.48;100479.84;4354038;32;33743;-68
2023/01/02 03:39:57;;;;;;;;;;;;;;;12.97;60.71;100475.28;4344173;32;34326;-67
2023/01/02 03:42:25;;;;;;;;;;;;;;;11.71;65.50;100492.16;4345067;32;35133;-67
2023/01/02 03:45:08;;;;;;;;;;;;;;;12.65;62.36;100481.19;4354515;32;34664;-67
2023/01/02 03:47:51;;;;;;;;;;;;;;;12.18;63.99;100479.19;4357020;32;32274;-69
2023/01/02 03:50:24;;;;;;;;;;;;;;;11.65;66.09;100481.84;4346760;32;33496;-67
2023/01/02 03:52:51;;;;;;;;;;;;;;;11.62;66.47;100488.31;4335173;33;34599;-67
2023/01/02 03:55:18;;;;;;;;;;;;;;;11.96;65.62;100487.84;4353951;32;35325;-70
2023/01/02 03:57:52;;;;;;;;;;;;;;;12.01;65.23;100489.25;4351145;32;32278;-69
2023/01/02 04:00:24;;;;;;;;;;;;;;;12.00;65.46;100484.84;4355206;32;32902;-67
2023/01/02 04:02:51;;;;;;;;;;;;;;;11.58;67.53;100489.44;4355486;32;34107;-71
2023/01/02 04:05:19;;;;;;;;;;;;;;;11.63;67.15;100497.19;4356850;32;35352;-73
2023/01/02 04:08:18;;;;;;;;;;;;;;;10.91;70.50;100496.56;4356612;32;33713;-68
2023/01/02 04:10:46;;;;;;;;;;;;;;;11.72;67.00;100491.22;4349014;32;35621;-68
2023/01/02 04:13:18;;;;;;;;;;;;;;;11.76;66.73;100482.00;4343639;32;33924;-67
2023/01/02 04:15:46;;;;;;;;;;;;;;;11.52;67.75;100486.31;4347053;32;34502;-68
2023/01/02 04:18:26;;;;;;;;;;;;;;;11.63;67.46;100497.19;4345679;32;34249;-68
2023/01/02 04:20:55;;;;;;;;;;;;;;;11.35;68.28;100490.12;4357922;32;35460;-68
2023/01/02 04:23:32;;;;;;;;;;;;;;;11.32;68.96;100484.97;4358292;32;32868;-67
2023/01/02 04:26:02;;;;;;;;;;;;;;;11.14;69.95;100487.06;4353496;32;34094;-67
2023/01/02 04:28:29;;;;;;;;;;;;;;;11.30;68.80;100492.25;4356901;32;33319;-68
2023/01/02 04:30:59;;;;;;;;;;;;;;;11.16;69.18;100503.88;4347636;32;34024;-69
2023/01/02 04:33:27;;;;;;;;;;;;;;;10.33;73.70;100503.75;4355403;32;34522;-66
2023/01/02 04:35:54;;;;;;;;;;;;;;;11.01;70.62;100503.06;4350511;32;34347;-68
2023/01/02 04:38:21;;;;;;;;;;;;;;;11.56;67.87;100502.13;4347913;32;32887;-69
2023/01/02 04:40:49;;;;;;;;;;;;;;;11.12;68.90;100516.59;4355358;32;33628;-68
2023/01/02 04:43:18;;;;;;;;;;;;;;;11.27;68.93;100512.09;4356403;32;35496;-68
2023/01/02 04:45:46;;;;;;;;;;;;;;;11.53;67.70;100502.31;4359313;32;32036;-68
2023/01/02 04:48:14;;;;;;;;;;;;;;;11.36;68.17;100500.75;4359434;32;32588;-67
2023/01/02 04:50:42;;;;;;;;;;;;;;;10.94;69.58;100507.94;4359248;32;32523;-69
2023/01/02 04:53:09;;;;;;;;;;;;;;;10.86;70.33;100502.22;4357299;32;34152;-70
2023/01/02 04:55:37;;;;;;;;;;;;;;;11.41;68.01;100503.12;4349586;32;34725;-68
2023/01/02 04:58:04;;;;;;;;;;;;;;;11.03;68.57;100502.94;4350237;32;33668;-70
2023/01/02 05:00:32;;;;;;;;;;;;;;;11.19;68.70;100509.03;4357493;32;33525;-66
2023/01/02 05:03:02;;;;;;;;;;;;;;;11.54;67.45;100512.06;4346809;32;32927;-68
2023/01/02 05:05:29;;;;;;;;;;;;;;;11.43;67.91;100518.16;4353644;32;33092;-68
2023/01/02 05:07:58;;;;;;;;;;;;;;;11.11;68.94;100511.37;4358009;32;33327;-68
2023/01/02 05:10:25;;;;;;;;;;;;;;;10.79;69.75;100508.06;4351948;32;32853;-68
2023/01/02 05:12:52;;;;;;;;;;;;;;;11.66;66.36;100491.63;4354902;32;35419;-67
2023/01/02 05:15:20;;;;;;;;;;;;;;;11.19;68.21;100503.66;4356822;32;34452;-67
2023/01/02 05:17:48;;;;;;;;;;;;;;;10.91;69.42;100505.47;4359901;32;34580;-66
2023/01/02 05:20:15;;;;;;;;;;;;;;;11.68;66.31;100504.91;4354952;32;34076;-67
2023/01/02 05:25:33;;;;;;;;;;;;;;;11.60;66.65;100506.31;4353848;32;34188;-69
2023/01/02 05:28:01;;;;;;;;;;;;;;;9.49;74.75;100500.78;4358449;32;31903;-68
2023/01/02 05:30:28;;;;;;;;;;;;;;;10.98;69.21;100499.69;4357756;32;34273;-68
2023/01/02 05:32:55;;;;;;;;;;;;;;;10.83;69.72;100505.09;4357736;32;33187;-70
2023/01/02 05:35:23;;;;;;;;;;;;;;;11.29;67.79;100502.09;4355370;32;35498;-68
2023/01/02 05:37:58;;;;;;;;;;;;;;;11.13;68.42;100501.37;4357434;32;32880;-68
2023/01/02 05:40:25;;;;;;;;;;;;;;;11.42;67.13;100503.00;4355367;32;34056;-68
2023/01/02 05:42:53;;;;;;;;;;;;;;;11.49;66.70;100502.59;4357597;32;34038;-70
2023/01/02 05:45:20;;;;;;;;;;;;;;;11.29;67.65;100506.59;4353893;32;33083;-69
2023/01/02 05:47:48;;;;;;;;;;;;;;;10.58;69.69;100503.09;4357076;32;33427;-66
2023/01/02 05:50:15;;;;;;;;;;;;;;;11.26;67.77;100496.94;4356422;32;34217;-68
2023/01/02 05:52:43;;;;;;;;;;;;;;;11.09;68.66;100503.41;4358410;32;34234;-67
2023/01/02 05:55:12;;;;;;;;;;;;;;;11.40;67.02;100504.94;4358310;32;34261;-67
2023/01/02 05:57:40;;;;;;;;;;;;;;;10.94;68.42;100499.88;4357197;32;33616;-67
2023/01/02 06:00:08;;;;;;;;;;;;;;;11.36;67.51;100494.50;4350527;32;34080;-67
2023/01/02 06:02:38;;;;;;;;;;;;;;;10.16;71.29;100504.78;4355508;32;33391;-68
2023/01/02 06:05:10;;;;;;;;;;;;;;;9.85;72.94;100508.41;4351745;32;33739;-67
2023/01/02 06:07:37;;;;;;;;;;;;;;;9.96;73.44;100502.44;4356441;32;34436;-68
2023/01/02 06:10:05;;;;;;;;;;;;;;;10.03;73.26;100507.31;4357149;32;32949;-67
2023/01/02 06:12:32;;;;;;;;;;;;;;;9.80;74.43;100502.50;4358542;32;34919;-66
2023/01/02 06:14:59;;;;;;;;;;;;;;;10.76;70.08;100505.59;4357963;32;34579;-67
2023/01/02 06:17:27;;;;;;;;;;;;;;;10.10;72.35;100505.13;4356570;32;33551;-71
2023/01/02 06:19:54;;;;;;;;;;;;;;;10.35;71.02;100501.84;4356722;32;34015;-68
2023/01/02 06:22:21;;;;;;;;;;;;;;;10.03;72.59;100498.44;4348197;32;33054;-69
2023/01/02 06:24:48;;;;;;;;;;;;;;;10.86;69.34;100496.88;4357586;32;35594;-72
2023/01/02 06:27:16;;;;;;;;;;;;;;;10.77;69.43;100502.81;4356113;32;33766;-67
2023/01/02 06:29:43;;;;;;;;;;;;;;;10.61;68.65;100502.06;4354394;32;33660;-66
2023/01/02 06:32:10;;;;;;;;;;;;;;;10.17;71.02;100514.50;4351892;32;35214;-69
2023/01/02 06:34:38;;;;;;;;;;;;;;;10.72;69.24;100504.91;4353144;32;33836;-67
2023/01/02 06:37:05;;;;;;;;;;;;;;;11.02;67.81;100499.41;4354509;32;33447;-66
2023/01/02 06:39:37;;;;;;;;;;;;;;;11.02;67.81;100503.91;4353607;32;35222;-67
2023/01/02 06:42:05;;;;;;;;;;;;;;;10.40;70.30;100498.88;4357961;32;34424;-66
2023/01/02 06:44:32;;;;;;;;;;;;;;;10.30;71.06;100503.09;4359866;32;35419;-67
2023/01/02 06:46:59;;;;;;;;;;;;;;;10.52;70.25;100498.13;4347681;32;32125;-66
2023/01/02 06:49:27;;;;;;;;;;;;;;;10.69;69.69;100510.47;4343763;32;33330;-67
2023/01/02 06:51:54;;;;;;;;;;;;;;;11.06;67.42;100503.59;4353735;32;32923;-67
2023/01/02 06:54:21;;;;;;;;;;;;;;;10.01;72.11;100501.19;4355247;32;34130;-67
2023/01/02 06:56:49;;;;;;;;;;;;;;;11.25;67.49;100508.63;4357106;32;33232;-67
2023/01/02 06:59:16;;;;;;;;;;;;;;;10.98;67.99;100507.72;4355706;32;34251;-65
2023/01/02 07:01:44;;;;;;;;;;;;;;;11.64;65.77;100515.84;4357063;32;33290;-67
2023/01/02 07:04:15;;;;;;;;;;;;;;;10.26;70.85;100513.12;4356849;32;34467;-67
2023/01/02 07:06:42;;;;;;;;;;;;;;;10.17;71.10;100521.66;4358220;32;33813;-66
2023/01/02 07:09:09;;;;;;;;;;;;;;;9.71;72.71;100517.28;4357612;32;33039;-66
2023/01/02 07:11:37;;;;;;;;;;;;;;;10.18;71.53;100520.75;4344997;32;34047;-66
2023/01/02 07:14:04;;;;;;;;;;;;;;;10.79;68.82;100521.47;4358589;32;33142;-67
2023/01/02 07:16:31;;;;;;;;;;;;;;;10.87;68.39;100530.72;4357653;32;33186;-68
2023/01/02 07:18:59;;;;;;;;;;;;;;;10.79;68.53;100527.69;4355911;32;34758;-67
2023/01/02 07:21:26;;;;;;;;;;;;;;;10.91;67.67;100528.69;4355878;32;34079;-67
2023/01/02 07:23:53;;;;;;;;;;;;;;;11.45;66.32;100535.94;4356494;32;33245;-66
2023/01/02 07:26:21;;;;;;;;;;;;;;;10.57;69.64;100529.97;4359295;32;34520;-68
2023/01/02 07:28:48;;;;;;;;;;;;;;;11.12;67.67;100534.50;4350465;32;33721;-65
2023/01/02 07:31:16;;;;;;;;;;;;;;;10.76;69.14;100530.53;4353428;32;35265;-67
2023/01/02 07:33:44;;;;;;;;;;;;;;;11.66;65.48;100532.72;4358861;32;34326;-67
2023/01/02 07:36:15;;;;;;;;;;;;;;;11.03;67.85;100535.94;4357420;32;33557;-67
2023/01/02 07:38:43;;;;;;;;;;;;;;;11.46;66.06;100526.94;4356432;32;33447;-65
2023/01/02 07:41:14;;;;;;;;;;;;;;;11.66;65.24;100534.53;4355662;32;33958;-65
2023/01/02 07:43:42;;;;;;;;;;;;;;;11.77;64.86;100526.62;4357851;32;34117;-66
2023/01/02 07:46:09;;;;;;;;;;;;;;;11.98;63.99;100523.50;4355364;32;32377;-65
2023/01/02 07:48:37;;;;;;;;;;;;;;;11.36;65.92;100530.25;4358462;32;33929;-66
2023/01/02 07:51:04;;;;;;;;;;;;;;;11.74;64.79;100526.81;4359038;32;34698;-66
2023/01/02 07:53:32;;;;;;;;;;;;;;;11.80;64.46;100531.78;4358304;32;35317;-67
2023/01/02 07:55:59;;;;;;;;;;;;;;;11.70;65.11;100527.12;4358280;32;33109;-66
2023/01/02 07:58:27;;;;;;;;;;;;;;;11.46;65.53;100530.50;4356173;32;35106;-66
2023/01/02 08:00:54;;;;;;;;;;;;;;;11.08;67.27;100538.34;4355032;32;34088;-65
2023/01/02 08:03:29;;;;;;;;;;;;;;;10.62;69.08;100530.53;4354692;32;33213;-66
2023/01/02 08:06:03;;;;;;;;;;;;;;;10.58;70.01;100529.00;4359607;32;34763;-66
2023/01/02 08:08:31;;;;;;;;;;;;;;;11.02;67.59;100530.72;4357635;32;33944;-66
2023/01/02 08:11:02;;;;;;;;;;;;;;;10.81;68.77;100525.75;4345650;33;34322;-66
2023/01/02 08:13:29;;;;;;;;;;;;;;;10.74;69.23;100529.78;4351066;32;34209;-66
2023/01/02 08:15:56;;;;;;;;;;;;;;;10.62;69.85;100527.84;4354664;32;33665;-65
2023/01/02 08:18:23;;;;;;;;;;;;;;;11.22;67.12;100521.38;4357885;32;33103;-65
2023/01/02 08:20:51;;;;;;;;;;;;;;;11.34;66.92;100524.13;4347278;32;34007;-66
2023/01/02 08:23:18;;;;;;;;;;;;;;;11.75;65.46;100522.31;4358082;32;34658;-66
2023/01/02 08:25:45;;;;;;;;;;;;;;;11.57;66.08;100525.28;4359131;32;32228;-66
2023/01/02 08:28:12;;;;;;;;;;;;;;;11.52;66.19;100527.38;4358521;32;33117;-66
2023/01/02 08:30:40;;;;;;;;;;;;;;;10.68;69.51;100530.16;4356942;32;34045;-66
2023/01/02 08:33:07;;;;;;;;;;;;;;;11.46;66.74;100537.66;4357050;32;34663;-66
2023/01/02 08:35:34;;;;;;;;;;;;;;;11.35;67.58;100531.19;4357365;32;33167;-65
2023/01/02 08:38:05;;;;;;;;;;;;;;;11.29;67.92;100534.25;4357621;32;34355;-67
2023/01/02 08:40:32;;;;;;;;;;;;;;;11.75;66.20;100533.91;4355427;32;34286;-66
2023/01/02 08:43:00;;;;;;;;;;;;;;;10.88;68.83;100537.81;4358870;32;35543;-66
2023/01/02 08:45:27;;;;;;;;;;;;;;;11.60;66.14;100529.56;4359414;32;33447;-66
2023/01/02 08:47:54;;;;;;;;;;;;;;;11.65;66.10;100544.41;4357543;32;34176;-66
2023/01/02 08:50:21;;;;;;;;;;;;;;;11.96;65.15;100541.50;4355537;32;35049;-66
2023/01/02 08:52:49;;;;;;;;;;;;;;;11.77;65.94;100541.84;4358100;32;34063;-66
2023/01/02 08:55:16;;;;;;;;;;;;;;;11.96;65.26;100539.69;4361589;32;34339;-66
2023/01/02 08:57:43;;;;;;;;;;;;;;;12.10;64.67;100538.72;4359808;32;35140;-66
2023/01/02 09:00:11;;;;;;;;;;;;;;;11.16;67.94;100546.75;4355690;32;35220;-66
2023/01/02 09:02:38;;;;;;;;;;;;;;;11.03;69.18;100546.66;4350736;32;34179;-66
2023/01/02 09:05:06;;;;;;;;;;;;;;;10.99;69.78;100545.16;4354818;32;32139;-66
2023/01/02 09:07:33;;;;;;;;;;;;;;;11.83;65.70;100539.63;4355226;32;35105;-64
2023/01/02 09:10:00;;;;;;;;;;;;;;;11.74;66.60;100534.88;4348060;32;34337;-66
2023/01/02 09:12:28;;;;;;;;;;;;;;;11.23;67.60;100540.03;4344108;33;34283;-67
2023/01/02 09:14:55;;;;;;;;;;;;;;;10.40;70.71;100539.91;4356564;32;34744;-65
2023/01/02 09:17:22;;;;;;;;;;;;;;;10.17;72.34;100541.25;4355969;32;35075;-66
2023/01/02 09:19:49;;;;;;;;;;;;;;;9.76;75.04;100541.06;4357152;32;34090;-65
2023/01/02 09:22:17;;;;;;;;;;;;;;;10.56;71.64;100531.81;4354887;32;34327;-67
2023/01/02 09:24:44;;;;;;;;;;;;;;;11.00;69.63;100533.47;4357136;32;33769;-66
2023/01/02 09:27:11;;;;;;;;;;;;;;;10.52;71.73;100535.59;4356363;32;34114;-65
2023/01/02 09:29:39;;;;;;;;;;;;;;;10.25;72.07;100544.34;4354029;32;34896;-66
2023/01/02 09:32:06;;;;;;;;;;;;;;;10.96;70.16;100540.00;4349047;32;34133;-67
2023/01/02 09:34:33;;;;;;;;;;;;;;;11.58;67.33;100515.41;4351051;32;34983;-68
2023/01/02 09:37:01;;;;;;;;;;;;;;;11.06;68.80;100518.81;4356329;32;34406;-67
2023/01/02 09:39:28;;;;;;;;;;;;;;;11.18;68.62;100520.72;4357313;32;34283;-68
2023/01/02 09:41:59;;;;;;;;;;;;;;;11.34;68.02;100515.22;4356890;32;34305;-65
2023/01/02 09:44:26;;;;;;;;;;;;;;;10.28;71.67;100515.72;4355983;32;33615;-66
2023/01/02 09:46:55;;;;;;;;;;;;;;;11.07;69.41;100509.81;4348741;32;32499;-66
2023/01/02 09:49:23;;;;;;;;;;;;;;;11.13;69.05;100515.63;4357761;32;32741;-68
2023/01/02 09:51:51;;;;;;;;;;;;;;;11.25;67.86;100494.37;4353718;32;35489;-66
2023/01/02 09:54:18;;;;;;;;;;;;;;;10.52;71.08;100506.16;4355567;32;32351;-66
2023/01/02 09:56:46;;;;;;;;;;;;;;;10.84;69.51;100495.22;4358099;32;33668;-65
2023/01/02 09:59:14;;;;;;;;;;;;;;;10.30;72.31;100495.06;4351151;32;34526;-65
2023/01/02 10:02:00;;;;;;;;;;;;;;;10.54;72.10;100493.56;4357697;32;35469;-65
2023/01/02 10:04:33;;;;;;;;;;;;;;;10.29;73.04;100486.19;4352840;32;34315;-65
2023/01/02 10:07:18;;;;;;;;;;;;;;;10.67;71.86;100491.81;4347382;32;32567;-66
2023/01/02 10:10:06;;;;;;;;;;;;;;;11.27;68.51;100487.06;4359442;32;35296;-68
2023/01/02 10:12:52;;;;;;;;;;;;;;;11.25;68.71;100491.69;4358892;32;33557;-66
2023/01/02 10:15:22;;;;;;;;;;;;;;;10.99;69.49;100494.25;4359394;32;33334;-65
2023/01/02 10:17:49;;;;;;;;;;;;;;;10.94;69.70;100486.50;4359743;32;35371;-68
2023/01/02 10:20:18;;;;;;;;;;;;;;;11.31;69.10;100480.56;4345098;32;32897;-66
2023/01/02 10:22:52;;;;;;;;;;;;;;;11.47;67.85;100475.06;4359419;32;34947;-65
2023/01/02 10:25:27;;;;;;;;;;;;;;;11.66;67.72;100479.06;4334519;32;33137;-67
2023/01/02 10:28:06;;;;;;;;;;;;;;;11.50;68.48;100473.03;4359078;32;33177;-66
2023/01/02 10:30:35;;;;;;;;;;;;;;;11.58;67.80;100467.16;4345973;32;33483;-69
2023/01/02 10:33:25;;;;;;;;;;;;;;;11.85;66.78;100465.31;4360173;32;35173;-66
2023/01/02 10:35:53;;;;;;;;;;;;;;;11.34;68.81;100466.97;4355371;32;33745;-65
2023/01/02 10:38:21;;;;;;;;;;;;;;;11.85;66.54;100459.94;4345840;32;32627;-65
2023/01/02 10:40:49;;;;;;;;;;;;;;;11.73;67.05;100457.22;4350416;32;34867;-66
2023/01/02 10:43:16;;;;;;;;;;;;;;;11.79;67.24;100452.28;4346165;32;32871;-67
2023/01/02 10:45:44;;;;;;;;;;;;;;;11.99;66.51;100445.56;4357772;32;33476;-67
2023/01/02 10:48:11;;;;;;;;;;;;;;;12.14;66.06;100449.00;4359234;32;34047;-66
2023/01/02 10:50:40;;;;;;;;;;;;;;;11.77;67.87;100438.09;4357003;32;34264;-66
2023/01/02 10:53:21;;;;;;;;;;;;;;;12.01;66.39;100430.22;4344309;32;35084;-65
2023/01/02 10:55:48;;;;;;;;;;;;;;;11.97;66.83;100430.53;4356508;32;34091;-66
2023/01/02 10:58:19;;;;;;;;;;;;;;;11.71;67.99;100429.63;4345983;32;34133;-67
2023/01/02 11:00:47;;;;;;;;;;;;;;;11.64;67.82;100429.19;4357929;32;33696;-66
2023/01/02 11:03:15;;;;;;;;;;;;;;;11.49;68.51;100424.88;4360399;32;34459;-65
2023/01/02 11:05:44;;;;;;;;;;;;;;;11.83;67.77;100429.63;4359031;32;34666;-66
2023/01/02 11:08:15;;;;;;;;;;;;;;;11.04;70.43;100425.16;4356815;32;34255;-66
2023/01/02 11:10:43;;;;;;;;;;;;;;;11.94;67.83;100426.28;4359652;32;34127;-67
2023/01/02 11:13:15;;;;;;;;;;;;;;;12.27;66.76;100423.03;4362355;32;34104;-65
2023/01/02 11:15:47;;;;;;;;;;;;;;;12.57;65.50;100419.09;4361547;32;33421;-66
2023/01/02 11:18:18;;;;;;;;;;;;;;;12.48;66.14;100420.63;4360966;32;35142;-68
2023/01/02 11:20:48;;;;;;;;;;;;;;;12.77;64.72;100415.81;4350451;32;34291;-67
2023/01/02 11:23:15;;;;;;;;;;;;;;;12.79;64.07;100418.41;4347163;33;34596;-66
2023/01/02 11:25:42;;;;;;;;;;;;;;;12.27;66.33;100409.59;4358669;32;31913;-65
2023/01/02 11:28:14;;;;;;;;;;;;;;;12.64;64.97;100411.47;4358064;32;35792;-66
2023/01/02 11:30:45;;;;;;;;;;;;;;;12.65;65.21;100405.09;4357851;32;34494;-67
2023/01/02 11:33:13;;;;;;;;;;;;;;;12.82;64.85;100402.91;4359764;32;32830;-65
2023/01/02 11:35:46;;;;;;;;;;;;;;;12.61;65.37;100404.47;4362118;32;31497;-68
2023/01/02 11:38:17;;;;;;;;;;;;;;;12.85;64.72;100391.09;4354718;32;35102;-68
2023/01/02 11:40:57;;;;;;;;;;;;;;;12.96;64.62;100382.22;4357908;32;34125;-67
2023/01/02 11:43:47;;;;;;;;;;;;;;;13.36;63.25;100380.13;4357709;32;35173;-66
2023/01/02 11:46:20;;;;;;;;;;;;;;;13.12;63.64;100384.62;4364441;32;33170;-66
2023/01/02 11:48:48;;;;;;;;;;;;;;;13.89;61.26;100366.16;4345996;32;34892;-66
2023/01/02 11:51:15;;;;;;;;;;;;;;;13.71;62.00;100369.34;4361979;32;33811;-66
2023/01/02 11:53:46;;;;;;;;;;;;;;;13.80;61.63;100364.19;4360323;32;34487;-66
2023/01/02 11:56:16;;;;;;;;;;;;;;;13.38;62.81;100361.16;4360392;32;33870;-66
2023/01/02 11:58:50;;;;;;;;;;;;;;;13.56;61.83;100353.53;4351514;32;34848;-66
2023/01/02 12:01:19;;;;;;;;;;;;;;;13.71;61.77;100347.81;4346902;32;32860;-66
2023/01/02 12:03:47;;;;;;;;;;;;;;;13.62;62.08;100345.84;4345208;32;35437;-68
2023/01/02 12:06:14;;;;;;;;;;;;;;;13.82;61.83;100349.66;4360292;32;34045;-66
2023/01/02 12:08:51;;;;;;;;;;;;;;;14.40;60.03;100344.12;4358875;32;35293;-67
2023/01/02 12:11:27;;;;;;;;;;;;;;;13.83;62.05;100335.22;4356286;32;34307;-66
2023/01/02 12:14:13;;;;;;;;;;;;;;;13.97;61.57;100336.81;4359041;32;34073;-66
2023/01/02 12:16:41;;;;;;;;;;;;;;;14.61;59.66;100333.50;4361492;32;34351;-67
2023/01/02 12:19:12;;;;;;;;;;;;;;;14.42;59.33;100345.72;4356671;32;33095;-67
2023/01/02 12:21:42;;;;;;;;;;;;;;;14.61;58.77;100334.34;4357372;32;34326;-67
2023/01/02 12:24:09;;;;;;;;;;;;;;;14.52;59.10;100327.00;4359916;32;35632;-68
2023/01/02 12:26:55;;;;;;;;;;;;;;;14.38;59.47;100338.00;4357239;32;33121;-67
2023/01/02 12:29:26;;;;;;;;;;;;;;;14.21;60.20;100328.59;4344747;32;33166;-68
2023/01/02 12:32:24;;;;;;;;;;;;;;;13.99;60.95;100330.31;4354100;32;34289;-66
2023/01/02 12:35:11;;;;;;;;;;;;;;;13.33;63.15;100331.97;4343910;32;34777;-67
2023/01/02 12:37:41;;;;;;;;;;;;;;;13.74;62.07;100325.19;4356832;32;33822;-69
2023/01/02 12:40:18;;;;;;;;;;;;;;;13.37;62.82;100333.44;4361354;32;34250;-67
2023/01/02 12:43:00;;;;;;;;;;;;;;;14.08;60.98;100327.88;4359329;32;33978;-68
2023/01/02 12:45:37;;;;;;;;;;;;;;;13.82;61.37;100330.81;4359051;32;34163;-68
2023/01/02 12:48:24;;;;;;;;;;;;;;;13.75;62.16;100324.22;4341443;32;33206;-68
2023/01/02 12:51:19;;;;;;;;;;;;;;;14.07;60.94;100324.34;4357177;32;33940;-67
2023/01/02 12:53:50;;;;;;;;;;;;;;;14.28;60.44;100315.50;4336028;32;33373;-67
2023/01/02 12:56:48;;;;;;;;;;;;;;;14.14;60.78;100312.09;4350595;32;35153;-67